createdAt,value
2017-01-30T00:00:07.937Z,50
2017-01-30T00:01:18.525Z,50
2017-01-30T00:02:28.274Z,50
2017-01-30T00:03:38.920Z,50
2017-01-30T00:04:48.653Z,50.09
2017-01-30T00:05:59.254Z,50.09
2017-01-30T00:07:09.412Z,50.19
2017-01-30T00:08:19.595Z,49.62
2017-01-30T00:09:29.365Z,50
2017-01-30T00:10:39.958Z,50
2017-01-30T00:11:50.993Z,50
2017-01-30T00:13:00.713Z,50
2017-01-30T00:14:10.888Z,50
2017-01-30T00:15:20.655Z,50.19
2017-01-30T00:16:31.695Z,50.09
2017-01-30T00:17:41.854Z,49.9
2017-01-30T00:18:51.171Z,50.09
2017-01-30T00:20:01.326Z,49.9
2017-01-30T00:21:11.543Z,50
2017-01-30T00:22:21.260Z,50
2017-01-30T00:23:31.416Z,50.19
2017-01-30T00:24:41.141Z,50.09
2017-01-30T00:25:51.738Z,50.09
2017-01-30T00:27:02.386Z,50.09
2017-01-30T00:28:12.552Z,50.09
2017-01-30T00:29:22.715Z,50.09
2017-01-30T00:30:31.998Z,50.09
2017-01-30T00:31:42.596Z,49.71
2017-01-30T00:32:52.802Z,49.62
2017-01-30T00:34:02.952Z,50.09
2017-01-30T00:35:12.672Z,49.62
2017-01-30T00:36:22.824Z,50.19
2017-01-30T00:37:32.986Z,50.19
2017-01-30T00:38:43.187Z,49.62
2017-01-30T00:39:53.362Z,50
2017-01-30T00:41:02.643Z,50.09
2017-01-30T00:42:11.929Z,49.71
2017-01-30T00:43:22.529Z,50.19
2017-01-30T00:44:32.834Z,50.09
2017-01-30T00:45:42.576Z,50.09
2017-01-30T00:46:52.296Z,49.71
2017-01-30T00:48:02.895Z,50.09
2017-01-30T00:49:13.049Z,50
2017-01-30T00:50:22.822Z,50.09
2017-01-30T00:51:32.973Z,50.19
2017-01-30T00:52:42.694Z,50.19
2017-01-30T00:53:51.987Z,50.09
2017-01-30T00:55:02.147Z,50
2017-01-30T00:56:12.360Z,50
2017-01-30T00:57:22.956Z,50
2017-01-30T00:58:33.116Z,50.09
2017-01-30T00:59:42.839Z,50
2017-01-30T01:00:53.436Z,50
2017-01-30T01:02:03.202Z,50.19
2017-01-30T01:03:12.483Z,50.09
2017-01-30T01:04:22.204Z,50
2017-01-30T01:05:31.929Z,50
2017-01-30T01:06:41.215Z,50
2017-01-30T01:07:50.985Z,50.19
2017-01-30T01:09:00.268Z,50.19
2017-01-30T01:10:09.990Z,50
2017-01-30T01:11:19.718Z,50
2017-01-30T01:12:29.005Z,50.19
2017-01-30T01:13:39.224Z,50.09
2017-01-30T01:14:48.511Z,50.09
2017-01-30T01:15:58.670Z,49.71
2017-01-30T01:17:07.954Z,50
2017-01-30T01:18:17.676Z,50.19
2017-01-30T01:19:27.004Z,50.09
2017-01-30T01:20:36.722Z,50.19
2017-01-30T01:21:46.438Z,50.09
2017-01-30T01:22:56.159Z,50.19
2017-01-30T01:24:06.754Z,50.09
2017-01-30T01:25:16.535Z,50.19
2017-01-30T01:26:26.256Z,49.8
2017-01-30T01:27:36.421Z,49.9
2017-01-30T01:28:46.136Z,50
2017-01-30T01:29:56.345Z,50
2017-01-30T01:31:06.557Z,50
2017-01-30T01:32:15.840Z,50
2017-01-30T01:33:26.869Z,50.19
2017-01-30T01:34:37.465Z,50.09
2017-01-30T01:35:46.748Z,49.98
2017-01-30T01:36:56.957Z,50.09
2017-01-30T01:38:07.546Z,50.09
2017-01-30T01:39:17.696Z,50
2017-01-30T01:40:27.864Z,50
2017-01-30T01:41:37.595Z,50.19
2017-01-30T01:42:47.396Z,50.09
2017-01-30T01:43:57.989Z,50
2017-01-30T01:45:07.705Z,50.19
2017-01-30T01:46:17.864Z,50
2017-01-30T01:47:27.585Z,50
2017-01-30T01:48:37.795Z,50
2017-01-30T01:49:47.074Z,50
2017-01-30T01:50:57.237Z,50.19
2017-01-30T01:52:06.960Z,50.19
2017-01-30T01:53:16.683Z,50.09
2017-01-30T01:54:26.455Z,50
2017-01-30T01:55:37.050Z,50.19
2017-01-30T01:56:46.343Z,49.62
2017-01-30T01:57:56.490Z,50
2017-01-30T01:59:06.649Z,50.19
2017-01-30T02:00:16.421Z,49.62
2017-01-30T02:01:27.018Z,50.09
2017-01-30T02:02:37.618Z,49.62
2017-01-30T02:03:48.225Z,49.43
2017-01-30T02:04:58.383Z,49.43
2017-01-30T02:06:09.032Z,49.52
2017-01-30T02:07:18.760Z,49.62
2017-01-30T02:08:28.926Z,49.71
2017-01-30T02:09:38.675Z,49.62
2017-01-30T02:10:48.397Z,49.43
2017-01-30T02:11:58.171Z,49.33
2017-01-30T02:13:08.330Z,49.43
2017-01-30T02:14:19.908Z,49.4
2017-01-30T02:15:30.086Z,49.43
2017-01-30T02:16:39.823Z,49.43
2017-01-30T02:17:50.489Z,49.52
2017-01-30T02:19:00.663Z,49.33
2017-01-30T02:20:10.398Z,49.4
2017-01-30T02:21:20.567Z,49.3
2017-01-30T02:22:30.299Z,49.4
2017-01-30T02:23:40.519Z,49.4
2017-01-30T02:24:50.248Z,49.43
2017-01-30T02:26:00.428Z,49.33
2017-01-30T02:27:10.166Z,49.33
2017-01-30T02:28:20.340Z,49.3
2017-01-30T02:29:30.125Z,49.4
2017-01-30T02:30:39.422Z,49.43
2017-01-30T02:31:49.153Z,49.4
2017-01-30T02:32:58.888Z,49.4
2017-01-30T02:34:09.069Z,49.49
2017-01-30T02:35:18.419Z,49.3
2017-01-30T02:36:28.599Z,49.3
2017-01-30T02:37:38.333Z,49.4
2017-01-30T02:38:48.064Z,49.3
2017-01-30T02:39:58.235Z,49.59
2017-01-30T02:41:08.024Z,49.4
2017-01-30T02:42:17.754Z,49.33
2017-01-30T02:43:27.925Z,49.3
2017-01-30T02:44:38.101Z,49.49
2017-01-30T02:45:48.300Z,49.49
2017-01-30T02:46:58.082Z,49.49
2017-01-30T02:48:07.823Z,49.49
2017-01-30T02:49:17.559Z,49.3
2017-01-30T02:50:27.731Z,49.3
2017-01-30T02:51:38.357Z,49.49
2017-01-30T02:52:48.579Z,49.4
2017-01-30T02:53:58.754Z,49.3
2017-01-30T02:55:08.489Z,49.49
2017-01-30T02:56:18.225Z,49.49
2017-01-30T02:57:28.399Z,49.4
2017-01-30T02:58:38.622Z,49.49
2017-01-30T02:59:47.919Z,49.3
2017-01-30T03:00:58.095Z,49.49
2017-01-30T03:02:07.836Z,49.4
2017-01-30T03:03:18.010Z,49.49
2017-01-30T03:04:27.794Z,49.3
2017-01-30T03:05:38.412Z,49.49
2017-01-30T03:06:48.586Z,49.49
2017-01-30T03:07:58.318Z,49.3
2017-01-30T03:09:08.931Z,49.3
2017-01-30T03:10:18.721Z,49.4
2017-01-30T03:11:29.331Z,49.49
2017-01-30T03:12:38.652Z,49.4
2017-01-30T03:13:48.835Z,49.49
2017-01-30T03:14:59.457Z,49.3
2017-01-30T03:16:09.676Z,49.49
2017-01-30T03:17:19.404Z,49.3
2017-01-30T03:18:29.173Z,49.3
2017-01-30T03:19:38.478Z,49.3
2017-01-30T03:20:48.651Z,49.4
2017-01-30T03:21:58.873Z,49.69
2017-01-30T03:23:09.050Z,49.4
2017-01-30T03:24:19.669Z,49.21
2017-01-30T03:25:29.842Z,49.59
2017-01-30T03:26:39.132Z,49.49
2017-01-30T03:27:49.361Z,49.49
2017-01-30T03:28:59.096Z,49.4
2017-01-30T03:30:08.833Z,49.4
2017-01-30T03:31:18.567Z,49.4
2017-01-30T03:32:28.744Z,49.49
2017-01-30T03:33:38.529Z,49.4
2017-01-30T03:34:48.704Z,49.3
2017-01-30T03:35:59.318Z,49.49
2017-01-30T03:37:09.056Z,49.59
2017-01-30T03:38:19.673Z,49.4
2017-01-30T03:39:29.460Z,49.49
2017-01-30T03:40:39.213Z,49.49
2017-01-30T03:41:49.380Z,49.69
2017-01-30T03:42:59.114Z,49.3
2017-01-30T03:44:08.853Z,49.3
2017-01-30T03:45:18.736Z,49.4
2017-01-30T03:46:28.473Z,49.59
2017-01-30T03:47:38.202Z,49.4
2017-01-30T03:48:48.375Z,49.59
2017-01-30T03:49:58.552Z,49.59
2017-01-30T03:51:08.489Z,49.4
2017-01-30T03:52:18.667Z,49.49
2017-01-30T03:53:28.403Z,49.59
2017-01-30T03:54:38.574Z,49.59
2017-01-30T03:55:48.302Z,49.49
2017-01-30T03:56:58.088Z,49.49
2017-01-30T03:58:07.827Z,49.59
2017-01-30T03:59:17.996Z,49.59
2017-01-30T04:00:28.171Z,49.59
2017-01-30T04:01:37.905Z,49.49
2017-01-30T04:02:47.685Z,49.69
2017-01-30T04:03:57.889Z,49.69
2017-01-30T04:05:08.503Z,49.59
2017-01-30T04:06:18.679Z,49.49
2017-01-30T04:07:28.410Z,49.49
2017-01-30T04:08:37.787Z,49.4
2017-01-30T04:09:47.524Z,49.59
2017-01-30T04:10:57.258Z,49.49
2017-01-30T04:12:06.990Z,49.21
2017-01-30T04:13:16.732Z,49.59
2017-01-30T04:14:26.513Z,49.21
2017-01-30T04:15:36.278Z,49.11
2017-01-30T04:16:46.031Z,49.4
2017-01-30T04:17:56.213Z,49.11
2017-01-30T04:19:06.390Z,49.11
2017-01-30T04:20:16.183Z,49.11
2017-01-30T04:21:26.363Z,49.11
2017-01-30T04:22:36.542Z,49.11
2017-01-30T04:23:46.274Z,49.11
2017-01-30T04:24:55.565Z,49.21
2017-01-30T04:26:04.935Z,49.4
2017-01-30T04:27:15.117Z,49.21
2017-01-30T04:28:24.850Z,49.21
2017-01-30T04:29:34.587Z,49.21
2017-01-30T04:30:44.760Z,49.11
2017-01-30T04:31:55.423Z,49.11
2017-01-30T04:33:05.178Z,49.11
2017-01-30T04:34:14.917Z,49.3
2017-01-30T04:35:25.092Z,49.11
2017-01-30T04:36:35.263Z,49.11
2017-01-30T04:37:45.205Z,49.11
2017-01-30T04:38:54.509Z,49.11
2017-01-30T04:40:04.690Z,49.21
2017-01-30T04:41:13.980Z,49.02
2017-01-30T04:42:24.152Z,48.93
2017-01-30T04:43:33.930Z,49.4
2017-01-30T04:44:43.662Z,48.93
2017-01-30T04:45:54.271Z,49.11
2017-01-30T04:47:04.450Z,49.02
2017-01-30T04:48:14.653Z,49.11
2017-01-30T04:49:24.871Z,49.11
2017-01-30T04:50:34.605Z,48.93
2017-01-30T04:51:44.338Z,48.93
2017-01-30T04:52:54.514Z,48.83
2017-01-30T04:54:04.253Z,49.02
2017-01-30T04:55:13.593Z,49.02
2017-01-30T04:56:23.771Z,49.11
2017-01-30T04:57:33.939Z,49.02
2017-01-30T04:58:43.671Z,48.93
2017-01-30T04:59:54.294Z,49.02
2017-01-30T05:01:04.519Z,49.11
2017-01-30T05:02:15.133Z,48.93
2017-01-30T05:03:25.753Z,48.93
2017-01-30T05:04:35.492Z,48.83
2017-01-30T05:05:46.112Z,49.3
2017-01-30T05:06:55.902Z,49.21
2017-01-30T05:08:05.637Z,49.3
2017-01-30T05:09:15.367Z,49.21
2017-01-30T05:10:25.099Z,49.21
2017-01-30T05:11:35.277Z,49.3
2017-01-30T05:12:45.065Z,49.21
2017-01-30T05:13:55.244Z,49.21
2017-01-30T05:15:05.425Z,48.93
2017-01-30T05:16:15.155Z,49.11
2017-01-30T05:17:24.888Z,49.3
2017-01-30T05:18:34.668Z,48.93
2017-01-30T05:19:44.401Z,49.21
2017-01-30T05:20:55.019Z,49.21
2017-01-30T05:22:05.197Z,49.3
2017-01-30T05:23:14.928Z,49.21
2017-01-30T05:24:25.610Z,49.21
2017-01-30T05:25:35.351Z,49.11
2017-01-30T05:26:45.081Z,49.21
2017-01-30T05:27:55.254Z,48.93
2017-01-30T05:29:05.436Z,48.83
2017-01-30T05:30:15.664Z,48.93
2017-01-30T05:31:25.399Z,49.11
2017-01-30T05:32:35.141Z,48.83
2017-01-30T05:33:45.312Z,48.93
2017-01-30T05:34:55.049Z,48.93
2017-01-30T05:36:04.833Z,48.93
2017-01-30T05:37:14.567Z,48.93
2017-01-30T05:38:24.300Z,48.83
2017-01-30T05:39:34.472Z,49.11
2017-01-30T05:40:44.210Z,49.21
2017-01-30T05:41:53.990Z,48.83
2017-01-30T05:43:03.724Z,49.21
2017-01-30T05:44:13.451Z,49.11
2017-01-30T05:45:23.618Z,49.21
2017-01-30T05:46:33.356Z,49.11
2017-01-30T05:47:43.139Z,49.3
2017-01-30T05:48:52.866Z,49.21
2017-01-30T05:50:03.037Z,49.11
2017-01-30T05:51:13.220Z,49.3
2017-01-30T05:52:22.985Z,49.3
2017-01-30T05:53:32.327Z,48.93
2017-01-30T05:54:42.063Z,48.93
2017-01-30T05:55:51.797Z,49.02
2017-01-30T05:57:01.093Z,48.93
2017-01-30T05:58:11.265Z,49.02
2017-01-30T05:59:21.049Z,48.93
2017-01-30T06:00:30.797Z,49.02
2017-01-30T06:01:40.967Z,49.02
2017-01-30T06:02:50.703Z,48.93
2017-01-30T06:04:00.869Z,49.3
2017-01-30T06:05:10.660Z,48.83
2017-01-30T06:06:21.720Z,48.83
2017-01-30T06:07:31.897Z,48.83
2017-01-30T06:08:42.076Z,48.93
2017-01-30T06:09:52.257Z,48.83
2017-01-30T06:11:02.924Z,48.93
2017-01-30T06:12:13.096Z,48.93
2017-01-30T06:13:22.823Z,49.3
2017-01-30T06:14:32.116Z,48.93
2017-01-30T06:15:42.289Z,48.93
2017-01-30T06:16:52.513Z,49.3
2017-01-30T06:18:02.246Z,49.02
2017-01-30T06:19:12.412Z,49.21
2017-01-30T06:20:22.586Z,49.21
2017-01-30T06:21:32.763Z,48.93
2017-01-30T06:22:42.998Z,48.83
2017-01-30T06:23:53.609Z,48.93
2017-01-30T06:25:03.794Z,48.73
2017-01-30T06:26:13.522Z,49.11
2017-01-30T06:27:23.263Z,48.83
2017-01-30T06:28:34.034Z,48.93
2017-01-30T06:29:43.771Z,48.83
2017-01-30T06:30:53.060Z,48.83
2017-01-30T06:32:02.796Z,48.83
2017-01-30T06:33:12.525Z,49.11
2017-01-30T06:34:22.312Z,48.93
2017-01-30T06:35:32.489Z,48.83
2017-01-30T06:36:43.107Z,48.83
2017-01-30T06:37:52.839Z,48.83
2017-01-30T06:39:02.573Z,48.83
2017-01-30T06:40:12.801Z,48.83
2017-01-30T06:41:22.976Z,48.93
2017-01-30T06:42:33.154Z,48.83
2017-01-30T06:43:42.891Z,48.64
2017-01-30T06:44:53.075Z,48.83
2017-01-30T06:46:03.016Z,48.83
2017-01-30T06:47:12.307Z,48.64
2017-01-30T06:48:22.064Z,48.64
2017-01-30T06:49:32.239Z,48.73
2017-01-30T06:50:41.552Z,48.64
2017-01-30T06:51:51.782Z,48.64
2017-01-30T06:53:01.958Z,48.64
2017-01-30T06:54:11.691Z,48.83
2017-01-30T06:55:21.424Z,48.64
2017-01-30T06:56:31.157Z,49.02
2017-01-30T06:57:41.376Z,49.11
2017-01-30T06:58:51.109Z,48.93
2017-01-30T07:00:00.848Z,48.93
2017-01-30T07:01:11.018Z,48.83
2017-01-30T07:02:21.181Z,48.93
2017-01-30T07:03:30.978Z,48.64
2017-01-30T07:04:40.717Z,48.64
2017-01-30T07:05:50.465Z,48.64
2017-01-30T07:07:00.198Z,48.64
2017-01-30T07:08:09.490Z,48.64
2017-01-30T07:09:19.708Z,48.93
2017-01-30T07:10:29.448Z,48.93
2017-01-30T07:11:40.054Z,48.64
2017-01-30T07:12:50.228Z,48.64
2017-01-30T07:14:00.404Z,48.93
2017-01-30T07:15:10.197Z,48.64
2017-01-30T07:16:20.370Z,48.44
2017-01-30T07:17:30.540Z,49.02
2017-01-30T07:18:41.163Z,48.64
2017-01-30T07:19:50.899Z,48.54
2017-01-30T07:21:00.683Z,48.93
2017-01-30T07:22:10.418Z,48.44
2017-01-30T07:23:20.155Z,49.11
2017-01-30T07:24:29.887Z,49.11
2017-01-30T07:25:40.073Z,48.54
2017-01-30T07:26:49.861Z,49.11
2017-01-30T07:28:00.035Z,49.02
2017-01-30T07:29:09.771Z,48.64
2017-01-30T07:30:19.942Z,48.83
2017-01-30T07:31:29.717Z,48.64
2017-01-30T07:32:39.940Z,48.73
2017-01-30T07:33:50.121Z,48.83
2017-01-30T07:34:59.859Z,48.64
2017-01-30T07:36:10.036Z,48.64
2017-01-30T07:37:20.209Z,48.64
2017-01-30T07:38:30.002Z,48.64
2017-01-30T07:39:39.739Z,48.83
2017-01-30T07:40:49.474Z,48.64
2017-01-30T07:41:59.206Z,48.54
2017-01-30T07:43:09.411Z,48.93
2017-01-30T07:44:19.632Z,49.11
2017-01-30T07:45:29.371Z,48.93
2017-01-30T07:46:39.547Z,49.02
2017-01-30T07:47:48.847Z,48.93
2017-01-30T07:48:59.013Z,48.64
2017-01-30T07:50:08.794Z,48.54
2017-01-30T07:51:18.531Z,48.64
2017-01-30T07:52:28.268Z,48.64
2017-01-30T07:53:38.446Z,48.64
2017-01-30T07:54:49.061Z,48.64
2017-01-30T07:55:58.847Z,48.54
2017-01-30T07:57:09.017Z,48.35
2017-01-30T07:58:19.227Z,48.64
2017-01-30T07:59:28.520Z,48.64
2017-01-30T08:00:38.693Z,48.54
2017-01-30T08:01:48.479Z,48.35
2017-01-30T08:02:58.235Z,48.54
2017-01-30T08:04:07.967Z,48.93
2017-01-30T08:05:18.137Z,48.44
2017-01-30T08:06:28.312Z,48.93
2017-01-30T08:07:38.096Z,48.44
2017-01-30T08:08:48.274Z,48.64
2017-01-30T08:09:58.002Z,48.64
2017-01-30T08:11:08.611Z,48.64
2017-01-30T08:12:18.345Z,48.44
2017-01-30T08:13:28.571Z,48.35
2017-01-30T08:14:38.310Z,48.35
2017-01-30T08:15:48.487Z,48.54
2017-01-30T08:16:58.658Z,48.44
2017-01-30T08:18:08.105Z,48.64
2017-01-30T08:19:18.709Z,48.54
2017-01-30T08:20:28.886Z,48.73
2017-01-30T08:21:39.059Z,48.54
2017-01-30T08:22:49.679Z,48.54
2017-01-30T08:23:59.856Z,48.54
2017-01-30T08:25:10.089Z,48.54
2017-01-30T08:26:19.816Z,48.64
2017-01-30T08:27:29.549Z,48.54
2017-01-30T08:28:39.728Z,48.54
2017-01-30T08:29:49.460Z,48.54
2017-01-30T08:30:59.240Z,48.64
2017-01-30T08:32:08.973Z,48.44
2017-01-30T08:33:18.709Z,48.44
2017-01-30T08:34:29.324Z,48.54
2017-01-30T08:35:39.497Z,48.44
2017-01-30T08:36:49.282Z,48.54
2017-01-30T08:37:58.575Z,48.35
2017-01-30T08:39:07.875Z,48.35
2017-01-30T08:40:18.048Z,48.54
2017-01-30T08:41:28.219Z,48.54
2017-01-30T08:42:37.560Z,48.25
2017-01-30T08:43:46.852Z,48.35
2017-01-30T08:44:56.585Z,48.25
2017-01-30T08:46:05.885Z,48.64
2017-01-30T08:47:15.619Z,48.25
2017-01-30T08:48:24.961Z,48.25
2017-01-30T08:49:34.254Z,48.64
2017-01-30T08:50:43.547Z,48.64
2017-01-30T08:51:52.844Z,48.73
2017-01-30T08:53:02.138Z,48.73
2017-01-30T08:54:11.487Z,48.54
2017-01-30T08:55:21.664Z,48.64
2017-01-30T08:56:30.965Z,48.54
2017-01-30T08:57:40.256Z,48.44
2017-01-30T08:58:49.990Z,48.54
2017-01-30T08:59:59.335Z,48.73
2017-01-30T09:01:09.068Z,48.64
2017-01-30T09:02:18.372Z,48.54
2017-01-30T09:03:27.670Z,48.54
2017-01-30T09:04:37.399Z,48.54
2017-01-30T09:05:46.747Z,48.54
2017-01-30T09:06:56.924Z,48.44
2017-01-30T09:08:06.658Z,48.54
2017-01-30T09:09:15.950Z,48.44
2017-01-30T09:10:26.122Z,48.35
2017-01-30T09:11:35.487Z,48.44
2017-01-30T09:12:44.781Z,48.83
2017-01-30T09:13:54.073Z,48.35
2017-01-30T09:15:04.248Z,48.25
2017-01-30T09:16:13.541Z,48.16
2017-01-30T09:17:22.888Z,48.35
2017-01-30T09:18:32.621Z,48.35
2017-01-30T09:19:42.350Z,48.25
2017-01-30T09:20:51.652Z,48.25
2017-01-30T09:22:00.945Z,48.35
2017-01-30T09:23:10.282Z,48.35
2017-01-30T09:24:20.459Z,48.54
2017-01-30T09:25:30.195Z,48.54
2017-01-30T09:26:39.928Z,48.35
2017-01-30T09:27:49.221Z,48.35
2017-01-30T09:28:59.004Z,48.54
2017-01-30T09:30:08.294Z,48.25
2017-01-30T09:31:18.029Z,48.64
2017-01-30T09:32:27.762Z,48.35
2017-01-30T09:33:37.053Z,48.25
2017-01-30T09:34:46.384Z,48.35
2017-01-30T09:35:55.674Z,48.35
2017-01-30T09:37:05.411Z,48.44
2017-01-30T09:38:14.705Z,48.25
2017-01-30T09:39:24.437Z,48.25
2017-01-30T09:40:33.782Z,48.35
2017-01-30T09:41:43.523Z,48.25
2017-01-30T09:42:52.820Z,48.16
2017-01-30T09:44:02.137Z,48.44
2017-01-30T09:45:11.438Z,48.25
2017-01-30T09:46:20.779Z,48.07
2017-01-30T09:47:30.516Z,48.25
2017-01-30T09:48:40.689Z,48.35
2017-01-30T09:49:50.430Z,48.25
2017-01-30T09:51:00.162Z,48.25
2017-01-30T09:52:09.509Z,48.25
2017-01-30T09:53:19.240Z,48.25
2017-01-30T09:54:28.531Z,48.07
2017-01-30T09:55:37.823Z,48.25
2017-01-30T09:56:47.124Z,48.35
2017-01-30T09:57:56.903Z,47.97
2017-01-30T09:59:06.632Z,48.16
2017-01-30T10:00:16.828Z,48.64
2017-01-30T10:01:26.122Z,48.35
2017-01-30T10:02:35.410Z,48.25
2017-01-30T10:03:45.648Z,48.83
2017-01-30T10:04:55.390Z,48.35
2017-01-30T10:06:05.121Z,48.44
2017-01-30T10:07:15.300Z,48.35
2017-01-30T10:08:25.037Z,48.44
2017-01-30T10:09:34.383Z,48.54
2017-01-30T10:10:44.120Z,48.54
2017-01-30T10:11:53.856Z,48.44
2017-01-30T10:13:04.032Z,48.73
2017-01-30T10:14:14.205Z,48.54
2017-01-30T10:15:24.424Z,48.44
2017-01-30T10:16:33.717Z,48.54
2017-01-30T10:17:43.010Z,48.44
2017-01-30T10:18:52.303Z,48.54
2017-01-30T10:20:01.620Z,48.35
2017-01-30T10:21:11.840Z,48.25
2017-01-30T10:22:21.132Z,48.16
2017-01-30T10:23:30.431Z,48.35
2017-01-30T10:24:39.729Z,48.16
2017-01-30T10:25:49.041Z,48.16
2017-01-30T10:26:58.823Z,48.25
2017-01-30T10:28:08.983Z,48.07
2017-01-30T10:29:18.710Z,48.25
2017-01-30T10:30:28.895Z,48.16
2017-01-30T10:31:38.193Z,48.25
2017-01-30T10:32:47.538Z,48.25
2017-01-30T10:33:56.827Z,48.35
2017-01-30T10:35:06.563Z,48.35
2017-01-30T10:36:16.298Z,48.25
2017-01-30T10:37:25.588Z,48.25
2017-01-30T10:38:35.815Z,48.35
2017-01-30T10:39:45.986Z,48.25
2017-01-30T10:40:56.162Z,48.25
2017-01-30T10:42:05.451Z,48.35
2017-01-30T10:43:14.740Z,48.35
2017-01-30T10:44:24.528Z,48.25
2017-01-30T10:45:33.815Z,48.25
2017-01-30T10:46:43.543Z,48.64
2017-01-30T10:47:52.838Z,48.35
2017-01-30T10:49:02.132Z,48.25
2017-01-30T10:50:11.480Z,48.07
2017-01-30T10:51:20.776Z,47.87
2017-01-30T10:52:30.503Z,48.25
2017-01-30T10:53:39.796Z,48.16
2017-01-30T10:54:49.094Z,48.07
2017-01-30T10:55:58.882Z,47.78
2017-01-30T10:57:08.618Z,48.07
2017-01-30T10:58:18.791Z,48.16
2017-01-30T10:59:28.974Z,48.07
2017-01-30T11:00:38.699Z,48.07
2017-01-30T11:01:48.048Z,48.07
2017-01-30T11:02:58.223Z,47.97
2017-01-30T11:04:07.962Z,47.97
2017-01-30T11:05:18.124Z,47.97
2017-01-30T11:06:27.409Z,48.16
2017-01-30T11:07:37.633Z,48.16
2017-01-30T11:08:46.928Z,48.07
2017-01-30T11:09:56.661Z,48.16
2017-01-30T11:11:05.959Z,47.97
2017-01-30T11:12:15.250Z,48.25
2017-01-30T11:13:25.077Z,48.16
2017-01-30T11:14:34.367Z,48.16
2017-01-30T11:15:43.663Z,48.16
2017-01-30T11:16:52.961Z,47.97
2017-01-30T11:18:02.257Z,48.07
2017-01-30T11:19:12.477Z,47.97
2017-01-30T11:20:22.208Z,48.25
2017-01-30T11:21:31.505Z,48.25
2017-01-30T11:22:40.802Z,47.97
2017-01-30T11:23:50.098Z,47.87
2017-01-30T11:25:00.861Z,47.87
2017-01-30T11:26:10.600Z,48.07
2017-01-30T11:27:20.778Z,47.97
2017-01-30T11:28:30.948Z,47.49
2017-01-30T11:29:40.694Z,47.97
2017-01-30T11:30:50.919Z,47.87
2017-01-30T11:32:00.211Z,47.49
2017-01-30T11:33:09.951Z,47.39
2017-01-30T11:34:20.120Z,47.39
2017-01-30T11:35:29.847Z,47.49
2017-01-30T11:36:39.632Z,47.78
2017-01-30T11:37:49.369Z,47.39
2017-01-30T11:38:58.655Z,47.68
2017-01-30T11:40:08.392Z,47.68
2017-01-30T11:41:17.693Z,47.87
2017-01-30T11:42:27.034Z,47.3
2017-01-30T11:43:36.772Z,47.39
2017-01-30T11:44:46.064Z,47.39
2017-01-30T11:45:55.798Z,47.58
2017-01-30T11:47:05.095Z,47.3
2017-01-30T11:48:14.431Z,47.68
2017-01-30T11:49:23.733Z,47.32
2017-01-30T11:50:33.023Z,47.49
2017-01-30T11:51:42.315Z,47.2
2017-01-30T11:52:52.489Z,47.58
2017-01-30T11:54:01.832Z,47.61
2017-01-30T11:55:12.014Z,46.94
2017-01-30T11:56:22.192Z,47.32
2017-01-30T11:57:31.928Z,47.01
2017-01-30T11:58:42.126Z,47.42
2017-01-30T11:59:51.470Z,47.32
2017-01-30T12:01:02.081Z,47.23
2017-01-30T12:02:12.271Z,47.03
2017-01-30T12:03:21.563Z,47.23
2017-01-30T12:04:31.293Z,47.03
2017-01-30T12:05:41.522Z,47.23
2017-01-30T12:06:50.847Z,47.23
2017-01-30T12:08:00.147Z,47.13
2017-01-30T12:09:09.442Z,46.94
2017-01-30T12:10:19.179Z,46.75
2017-01-30T12:11:28.963Z,46.75
2017-01-30T12:12:39.574Z,47.23
2017-01-30T12:13:49.309Z,47.32
2017-01-30T12:14:59.486Z,47.42
2017-01-30T12:16:09.664Z,46.94
2017-01-30T12:17:19.883Z,47.03
2017-01-30T12:18:29.171Z,47.13
2017-01-30T12:19:38.913Z,46.84
2017-01-30T12:20:48.209Z,47.13
2017-01-30T12:21:57.948Z,46.84
2017-01-30T12:23:08.176Z,46.84
2017-01-30T12:24:17.918Z,46.66
2017-01-30T12:25:27.654Z,46.75
2017-01-30T12:26:36.944Z,46.94
2017-01-30T12:27:46.677Z,46.66
2017-01-30T12:28:56.466Z,46.66
2017-01-30T12:30:05.756Z,46.75
2017-01-30T12:31:15.049Z,46.84
2017-01-30T12:32:24.787Z,46.84
2017-01-30T12:33:34.518Z,46.75
2017-01-30T12:34:43.868Z,46.84
2017-01-30T12:35:53.597Z,46.75
2017-01-30T12:37:02.890Z,46.84
2017-01-30T12:38:12.186Z,46.94
2017-01-30T12:39:21.481Z,46.84
2017-01-30T12:40:31.265Z,46.84
2017-01-30T12:41:41.007Z,46.84
2017-01-30T12:42:50.296Z,46.94
2017-01-30T12:44:00.031Z,46.84
2017-01-30T12:45:09.324Z,46.75
2017-01-30T12:46:19.112Z,46.94
2017-01-30T12:47:28.406Z,47.03
2017-01-30T12:48:38.151Z,47.03
2017-01-30T12:49:47.909Z,46.84
2017-01-30T12:50:57.210Z,46.94
2017-01-30T12:52:06.658Z,47.03
2017-01-30T12:53:16.388Z,46.84
2017-01-30T12:54:25.678Z,46.84
2017-01-30T12:55:34.977Z,47.03
2017-01-30T12:56:44.700Z,46.94
2017-01-30T12:57:54.067Z,46.84
2017-01-30T12:59:03.810Z,46.84
2017-01-30T13:00:13.101Z,46.84
2017-01-30T13:01:22.844Z,46.94
2017-01-30T13:02:32.133Z,46.94
2017-01-30T13:03:41.922Z,47.03
2017-01-30T13:04:51.654Z,46.94
2017-01-30T13:06:00.957Z,46.84
2017-01-30T13:07:10.252Z,46.94
2017-01-30T13:08:19.979Z,46.75
2017-01-30T13:09:29.765Z,47.03
2017-01-30T13:10:39.501Z,46.84
2017-01-30T13:11:48.796Z,46.75
2017-01-30T13:12:58.090Z,46.75
2017-01-30T13:14:08.708Z,46.75
2017-01-30T13:15:18.054Z,46.94
2017-01-30T13:16:27.350Z,46.84
2017-01-30T13:17:36.650Z,46.94
2017-01-30T13:18:45.943Z,47.03
2017-01-30T13:19:55.231Z,46.84
2017-01-30T13:21:04.576Z,46.94
2017-01-30T13:22:14.752Z,46.75
2017-01-30T13:23:24.047Z,46.84
2017-01-30T13:24:33.795Z,47.03
2017-01-30T13:25:43.531Z,46.75
2017-01-30T13:26:53.758Z,46.84
2017-01-30T13:28:03.939Z,46.75
2017-01-30T13:29:13.228Z,46.66
2017-01-30T13:30:22.973Z,46.84
2017-01-30T13:31:32.282Z,46.94
2017-01-30T13:32:42.064Z,46.94
2017-01-30T13:33:51.796Z,46.84
2017-01-30T13:35:01.530Z,46.84
2017-01-30T13:36:10.823Z,46.84
2017-01-30T13:37:20.556Z,46.84
2017-01-30T13:38:30.356Z,47.13
2017-01-30T13:39:39.646Z,47.13
2017-01-30T13:40:48.949Z,46.94
2017-01-30T13:41:58.677Z,46.84
2017-01-30T13:43:08.412Z,46.84
2017-01-30T13:44:18.221Z,46.75
2017-01-30T13:45:28.843Z,46.92
2017-01-30T13:46:38.132Z,47.01
2017-01-30T13:47:47.875Z,46.84
2017-01-30T13:48:57.164Z,46.63
2017-01-30T13:50:06.655Z,46.84
2017-01-30T13:51:15.945Z,46.92
2017-01-30T13:52:25.237Z,47.11
2017-01-30T13:53:34.535Z,47.01
2017-01-30T13:54:43.827Z,47.13
2017-01-30T13:55:53.759Z,47.23
2017-01-30T13:57:03.939Z,47.2
2017-01-30T13:58:13.236Z,47.13
2017-01-30T13:59:22.969Z,46.84
2017-01-30T14:00:32.703Z,46.84
2017-01-30T14:01:42.066Z,47.03
2017-01-30T14:02:51.801Z,47.11
2017-01-30T14:04:01.130Z,47.32
2017-01-30T14:05:10.866Z,47.03
2017-01-30T14:06:20.160Z,47.03
2017-01-30T14:07:29.943Z,47.32
2017-01-30T14:08:39.238Z,46.84
2017-01-30T14:09:48.975Z,47.2
2017-01-30T14:10:58.715Z,47.01
2017-01-30T14:12:08.896Z,46.92
2017-01-30T14:13:18.837Z,47.2
2017-01-30T14:14:28.565Z,46.92
2017-01-30T14:15:38.301Z,47.01
2017-01-30T14:16:47.590Z,46.92
2017-01-30T14:17:56.886Z,46.92
2017-01-30T14:19:07.111Z,46.92
2017-01-30T14:20:17.284Z,47.3
2017-01-30T14:21:27.460Z,46.82
2017-01-30T14:22:37.634Z,47.39
2017-01-30T14:23:47.801Z,46.92
2017-01-30T14:24:57.623Z,46.92
2017-01-30T14:26:07.797Z,47.78
2017-01-30T14:27:17.528Z,47.01
2017-01-30T14:28:26.821Z,46.92
2017-01-30T14:29:36.555Z,46.72
2017-01-30T14:30:45.896Z,47.2
2017-01-30T14:31:55.189Z,47.11
2017-01-30T14:33:05.366Z,47.2
2017-01-30T14:34:14.660Z,47.2
2017-01-30T14:35:23.976Z,47.68
2017-01-30T14:36:33.320Z,47.2
2017-01-30T14:37:43.066Z,46.82
2017-01-30T14:38:52.801Z,47.01
2017-01-30T14:40:02.538Z,46.82
2017-01-30T14:41:11.836Z,47.01
2017-01-30T14:42:21.184Z,46.82
2017-01-30T14:43:30.479Z,46.72
2017-01-30T14:44:39.766Z,46.72
2017-01-30T14:45:49.497Z,47.11
2017-01-30T14:46:58.784Z,46.92
2017-01-30T14:48:08.136Z,47.11
2017-01-30T14:49:17.866Z,47.2
2017-01-30T14:50:28.487Z,46.92
2017-01-30T14:51:37.788Z,47.01
2017-01-30T14:52:47.524Z,47.2
2017-01-30T14:53:57.309Z,47.11
2017-01-30T14:55:07.485Z,47.3
2017-01-30T14:56:16.779Z,47.2
2017-01-30T14:57:26.514Z,47.2
2017-01-30T14:58:35.816Z,47.2
2017-01-30T14:59:45.166Z,47.2
2017-01-30T15:00:54.454Z,47.11
2017-01-30T15:02:03.760Z,47.3
2017-01-30T15:03:13.056Z,47.11
2017-01-30T15:04:22.359Z,47.2
2017-01-30T15:05:33.030Z,47.3
2017-01-30T15:06:42.323Z,47.3